sensor_id;sensor_type;location;lat;lon;timestamp;pressure;altitude;pressure_sealevel;temperature;humidity
51928;BME280;37953;52.806;18.270;2023-02-13T00:01:30;102473.19;;;5.61;100.00
51928;BME280;37953;52.806;18.270;2023-02-13T00:03:56;102472.41;;;5.62;100.00
51928;BME280;37953;52.806;18.270;2023-02-13T00:06:22;102475.84;;;5.62;100.00
51928;BME280;37953;52.806;18.270;2023-02-13T00:08:48;102468.13;;;5.62;100.00
51928;BME280;37953;52.806;18.270;2023-02-13T00:11:13;102463.84;;;5.63;100.00
51928;BME280;37953;52.806;18.270;2023-02-13T00:13:40;102462.97;;;5.62;100.00
51928;BME280;37953;52.806;18.270;2023-02-13T00:16:06;102457.03;;;5.63;100.00
51928;BME280;37953;52.806;18.270;2023-02-13T00:18:33;102450.16;;;5.64;100.00
51928;BME280;37953;52.806;18.270;2023-02-13T00:21:04;102451.03;;;5.64;100.00
51928;BME280;37953;52.806;18.270;2023-02-13T00:23:31;102455.31;;;5.64;100.00
51928;BME280;37953;52.806;18.270;2023-02-13T00:25:57;102451.94;;;5.65;100.00
51928;BME280;37953;52.806;18.270;2023-02-13T00:28:24;102451.94;;;5.65;100.00
51928;BME280;37953;52.806;18.270;2023-02-13T00:30:50;102452.84;;;5.65;100.00
51928;BME280;37953;52.806;18.270;2023-02-13T00:33:15;102450.16;;;5.64;100.00
51928;BME280;37953;52.806;18.270;2023-02-13T00:35:41;102440.72;;;5.64;100.00
51928;BME280;37953;52.806;18.270;2023-02-13T00:38:07;102438.97;;;5.63;100.00
51928;BME280;37953;52.806;18.270;2023-02-13T00:40:33;102437.28;;;5.64;100.00
51928;BME280;37953;52.806;18.270;2023-02-13T00:42:59;102431.25;;;5.63;100.00
51928;BME280;37953;52.806;18.270;2023-02-13T00:45:24;102434.69;;;5.64;100.00
51928;BME280;37953;52.806;18.270;2023-02-13T00:47:50;102437.38;;;5.65;100.00
51928;BME280;37953;52.806;18.270;2023-02-13T00:50:16;102439.94;;;5.65;100.00
51928;BME280;37953;52.806;18.270;2023-02-13T00:52:42;102432.22;;;5.65;100.00
51928;BME280;37953;52.806;18.270;2023-02-13T00:55:07;102442.53;;;5.65;100.00
51928;BME280;37953;52.806;18.270;2023-02-13T00:57:33;102439.94;;;5.65;100.00
51928;BME280;37953;52.806;18.270;2023-02-13T00:59:59;102433.97;;;5.66;100.00
51928;BME280;37953;52.806;18.270;2023-02-13T01:02:25;102435.66;;;5.66;100.00
51928;BME280;37953;52.806;18.270;2023-02-13T01:04:51;102435.66;;;5.66;100.00
51928;BME280;37953;52.806;18.270;2023-02-13T01:07:16;102435.66;;;5.66;100.00
51928;BME280;37953;52.806;18.270;2023-02-13T01:09:42;102433.97;;;5.66;100.00
51928;BME280;37953;52.806;18.270;2023-02-13T01:12:08;102444.38;;;5.68;100.00
51928;BME280;37953;52.806;18.270;2023-02-13T01:14:34;102431.47;;;5.68;100.00
51928;BME280;37953;52.806;18.270;2023-02-13T01:17:00;102428.91;;;5.68;100.00
51928;BME280;37953;52.806;18.270;2023-02-13T01:19:26;102429.78;;;5.68;100.00
51928;BME280;37953;52.806;18.270;2023-02-13T01:21:52;102427.19;;;5.68;100.00
51928;BME280;37953;52.806;18.270;2023-02-13T01:24:17;102416.00;;;5.68;100.00
51928;BME280;37953;52.806;18.270;2023-02-13T01:26:43;102418.69;;;5.69;100.00
51928;BME280;37953;52.806;18.270;2023-02-13T01:29:12;102419.47;;;5.68;100.00
51928;BME280;37953;52.806;18.270;2023-02-13T01:31:38;102422.94;;;5.69;100.00
51928;BME280;37953;52.806;18.270;2023-02-13T01:34:04;102419.47;;;5.68;100.00
51928;BME280;37953;52.806;18.270;2023-02-13T01:36:30;102422.94;;;5.69;100.00
51928;BME280;37953;52.806;18.270;2023-02-13T01:38:56;102417.78;;;5.69;100.00
51928;BME280;37953;52.806;18.270;2023-02-13T01:41:23;102421.25;;;5.69;100.00
51928;BME280;37953;52.806;18.270;2023-02-13T01:43:51;102414.31;;;5.68;100.00
51928;BME280;37953;52.806;18.270;2023-02-13T01:46:19;102417.78;;;5.69;100.00
51928;BME280;37953;52.806;18.270;2023-02-13T01:48:46;102411.72;;;5.68;100.00
51928;BME280;37953;52.806;18.270;2023-02-13T01:51:15;102411.72;;;5.68;100.00
51928;BME280;37953;52.806;18.270;2023-02-13T01:53:47;102415.19;;;5.69;100.00
51928;BME280;37953;52.806;18.270;2023-02-13T01:56:22;102409.16;;;5.68;100.00
51928;BME280;37953;52.806;18.270;2023-02-13T01:59:01;102410.94;;;5.69;100.00
51928;BME280;37953;52.806;18.270;2023-02-13T02:01:28;102405.78;;;5.69;100.00
51928;BME280;37953;52.806;18.270;2023-02-13T02:03:59;102408.44;;;5.71;100.00
51928;BME280;37953;52.806;18.270;2023-02-13T02:06:30;102407.63;;;5.72;100.00
51928;BME280;37953;52.806;18.270;2023-02-13T02:08:58;102408.50;;;5.72;100.00
51928;BME280;37953;52.806;18.270;2023-02-13T02:11:31;102402.47;;;5.72;100.00
51928;BME280;37953;52.806;18.270;2023-02-13T02:13:59;102404.19;;;5.71;100.00
51928;BME280;37953;52.806;18.270;2023-02-13T02:16:26;102400.00;;;5.74;100.00
51928;BME280;37953;52.806;18.270;2023-02-13T02:18:51;102401.75;;;5.75;100.00
51928;BME280;37953;52.806;18.270;2023-02-13T02:27:04;102396.59;;;5.75;100.00
51928;BME280;37953;52.806;18.270;2023-02-13T02:34:50;102394.97;;;5.77;100.00
51928;BME280;37953;52.806;18.270;2023-02-13T02:40:02;102407.06;;;5.78;100.00
51928;BME280;37953;52.806;18.270;2023-02-13T02:48:29;102415.75;;;5.80;100.00
51928;BME280;37953;52.806;18.270;2023-02-13T02:54:36;102412.41;;;5.81;100.00
51928;BME280;37953;52.806;18.270;2023-02-13T02:57:26;102414.97;;;5.81;100.00
51928;BME280;37953;52.806;18.270;2023-02-13T02:59:50;102404.66;;;5.81;100.00
51928;BME280;37953;52.806;18.270;2023-02-13T03:02:35;102400.47;;;5.83;100.00
51928;BME280;37953;52.806;18.270;2023-02-13T03:05:21;102404.75;;;5.82;100.00
51928;BME280;37953;52.806;18.270;2023-02-13T03:08:08;102403.06;;;5.83;100.00
51928;BME280;37953;52.806;18.270;2023-02-13T03:10:35;102406.50;;;5.83;100.00
51928;BME280;37953;52.806;18.270;2023-02-13T03:15:58;102397.06;;;5.84;100.00
51928;BME280;37953;52.806;18.270;2023-02-13T03:18:44;102402.31;;;5.85;100.00
51928;BME280;37953;52.806;18.270;2023-02-13T03:24:24;102410.16;;;5.87;100.00
51928;BME280;37953;52.806;18.270;2023-02-13T03:29:50;102406.69;;;5.86;100.00
51928;BME280;37953;52.806;18.270;2023-02-13T03:35:27;102397.34;;;5.88;100.00
51928;BME280;37953;52.806;18.270;2023-02-13T03:38:31;102404.25;;;5.89;100.00
51928;BME280;37953;52.806;18.270;2023-02-13T03:41:03;102405.97;;;5.89;100.00
51928;BME280;37953;52.806;18.270;2023-02-13T03:46:31;102411.22;;;5.90;100.00
51928;BME280;37953;52.806;18.270;2023-02-13T03:49:00;102409.50;;;5.91;100.00
51928;BME280;37953;52.806;18.270;2023-02-13T03:51:57;102408.69;;;5.92;100.00
51928;BME280;37953;52.806;18.270;2023-02-13T03:54:26;102412.97;;;5.91;100.00
51928;BME280;37953;52.806;18.270;2023-02-13T03:57:14;102417.31;;;5.92;100.00
51928;BME280;37953;52.806;18.270;2023-02-13T04:00:02;102418.22;;;5.93;100.00
51928;BME280;37953;52.806;18.270;2023-02-13T04:02:32;102418.22;;;5.93;100.00
51928;BME280;37953;52.806;18.270;2023-02-13T04:05:15;102421.59;;;5.92;100.00
51928;BME280;37953;52.806;18.270;2023-02-13T04:07:46;102428.53;;;5.93;100.00
51928;BME280;37953;52.806;18.270;2023-02-13T04:10:13;102428.53;;;5.93;100.00
51928;BME280;37953;52.806;18.270;2023-02-13T04:15:15;102425.88;;;5.91;100.00
51928;BME280;37953;52.806;18.270;2023-02-13T04:20:31;102435.34;;;5.92;100.00
51928;BME280;37953;52.806;18.270;2023-02-13T04:23:02;102431.91;;;5.92;100.00
51928;BME280;37953;52.806;18.270;2023-02-13T04:25:28;102430.16;;;5.91;100.00
51928;BME280;37953;52.806;18.270;2023-02-13T04:27:54;102430.16;;;5.91;100.00
51928;BME280;37953;52.806;18.270;2023-02-13T04:30:20;102434.41;;;5.90;100.00
51928;BME280;37953;52.806;18.270;2023-02-13T04:32:45;102422.41;;;5.91;100.00
51928;BME280;37953;52.806;18.270;2023-02-13T04:35:11;102427.56;;;5.91;100.00
51928;BME280;37953;52.806;18.270;2023-02-13T04:37:43;102426.69;;;5.90;100.00
51928;BME280;37953;52.806;18.270;2023-02-13T04:40:09;102426.69;;;5.90;100.00
51928;BME280;37953;52.806;18.270;2023-02-13T04:42:35;102430.16;;;5.91;100.00
51928;BME280;37953;52.806;18.270;2023-02-13T04:45:01;102428.44;;;5.91;100.00
51928;BME280;37953;52.806;18.270;2023-02-13T04:47:26;102437.94;;;5.92;100.00
51928;BME280;37953;52.806;18.270;2023-02-13T04:49:52;102437.06;;;5.92;100.00
51928;BME280;37953;52.806;18.270;2023-02-13T04:52:18;102441.44;;;5.93;100.00
51928;BME280;37953;52.806;18.270;2023-02-13T04:54:47;102430.16;;;5.91;100.00
51928;BME280;37953;52.806;18.270;2023-02-13T04:57:13;102430.16;;;5.91;100.00
51928;BME280;37953;52.806;18.270;2023-02-13T04:59:40;102428.44;;;5.91;100.00
51928;BME280;37953;52.806;18.270;2023-02-13T05:02:05;102435.31;;;5.91;100.00
51928;BME280;37953;52.806;18.270;2023-02-13T05:04:32;102437.88;;;5.91;100.00
51928;BME280;37953;52.806;18.270;2023-02-13T05:06:57;102428.34;;;5.90;100.00
51928;BME280;37953;52.806;18.270;2023-02-13T05:09:23;102434.41;;;5.90;100.00
51928;BME280;37953;52.806;18.270;2023-02-13T05:11:52;102430.94;;;5.90;100.00
51928;BME280;37953;52.806;18.270;2023-02-13T05:14:19;102425.78;;;5.90;100.00
51928;BME280;37953;52.806;18.270;2023-02-13T05:16:44;102430.16;;;5.91;100.00
51928;BME280;37953;52.806;18.270;2023-02-13T05:19:10;102434.41;;;5.90;100.00
51928;BME280;37953;52.806;18.270;2023-02-13T05:21:36;102439.59;;;5.90;100.00
51928;BME280;37953;52.806;18.270;2023-02-13T05:24:20;102433.50;;;5.90;100.00
51928;BME280;37953;52.806;18.270;2023-02-13T05:26:46;102436.09;;;5.90;100.00
51928;BME280;37953;52.806;18.270;2023-02-13T05:29:12;102434.41;;;5.90;100.00
51928;BME280;37953;52.806;18.270;2023-02-13T05:31:46;102441.34;;;5.91;100.00
51928;BME280;37953;52.806;18.270;2023-02-13T05:34:14;102434.69;;;5.95;100.00
51928;BME280;37953;52.806;18.270;2023-02-13T05:36:40;102432.25;;;5.98;100.00
51928;BME280;37953;52.806;18.270;2023-02-13T05:39:06;102436.63;;;5.99;100.00
51928;BME280;37953;52.806;18.270;2023-02-13T05:41:32;102434.19;;;6.02;100.00
51928;BME280;37953;52.806;18.270;2023-02-13T05:43:58;102426.56;;;6.04;100.00
51928;BME280;37953;52.806;18.270;2023-02-13T05:46:23;102436.13;;;6.06;100.00
51928;BME280;37953;52.806;18.270;2023-02-13T05:48:50;102434.44;;;6.07;100.00
51928;BME280;37953;52.806;18.270;2023-02-13T05:51:15;102435.31;;;6.07;100.00
51928;BME280;37953;52.806;18.270;2023-02-13T05:53:41;102429.38;;;6.08;100.00
51928;BME280;37953;52.806;18.270;2023-02-13T05:56:07;102430.25;;;6.09;100.00
51928;BME280;37953;52.806;18.270;2023-02-13T05:58:33;102432.91;;;6.10;100.00
51928;BME280;37953;52.806;18.270;2023-02-13T06:00:59;102434.63;;;6.10;100.00
51928;BME280;37953;52.806;18.270;2023-02-13T06:03:26;102440.66;;;6.10;100.00
51928;BME280;37953;52.806;18.270;2023-02-13T06:05:52;102437.19;;;6.10;100.00
51928;BME280;37953;52.806;18.270;2023-02-13T06:08:19;102445.00;;;6.11;100.00
51928;BME280;37953;52.806;18.270;2023-02-13T06:10:45;102439.84;;;6.11;100.00
51928;BME280;37953;52.806;18.270;2023-02-13T06:13:11;102448.50;;;6.12;100.00
51928;BME280;37953;52.806;18.270;2023-02-13T06:15:37;102447.66;;;6.13;100.00
51928;BME280;37953;52.806;18.270;2023-02-13T06:18:02;102445.00;;;6.11;100.00
51928;BME280;37953;52.806;18.270;2023-02-13T06:20:28;102452.81;;;6.13;100.00
51928;BME280;37953;52.806;18.270;2023-02-13T06:22:54;102448.50;;;6.12;100.00
51928;BME280;37953;52.806;18.270;2023-02-13T06:25:20;102449.38;;;6.13;100.00
51928;BME280;37953;52.806;18.270;2023-02-13T06:27:46;102445.91;;;6.12;100.00
51928;BME280;37953;52.806;18.270;2023-02-13T06:30:12;102445.00;;;6.11;100.00
51928;BME280;37953;52.806;18.270;2023-02-13T06:32:38;102442.41;;;6.11;100.00
51928;BME280;37953;52.806;18.270;2023-02-13T06:35:04;102445.00;;;6.11;100.00
51928;BME280;37953;52.806;18.270;2023-02-13T06:37:31;102439.84;;;6.11;100.00
51928;BME280;37953;52.806;18.270;2023-02-13T06:39:56;102451.06;;;6.12;100.00
51928;BME280;37953;52.806;18.270;2023-02-13T06:42:22;102441.53;;;6.11;100.00
51928;BME280;37953;52.806;18.270;2023-02-13T06:44:48;102453.56;;;6.10;100.00
51928;BME280;37953;52.806;18.270;2023-02-13T06:47:14;102457.03;;;6.11;100.00
51928;BME280;37953;52.806;18.270;2023-02-13T06:49:40;102457.03;;;6.11;100.00
51928;BME280;37953;52.806;18.270;2023-02-13T06:52:06;102459.59;;;6.11;100.00
51928;BME280;37953;52.806;18.270;2023-02-13T06:54:31;102459.59;;;6.11;100.00
51928;BME280;37953;52.806;18.270;2023-02-13T06:56:57;102458.72;;;6.10;100.00
51928;BME280;37953;52.806;18.270;2023-02-13T06:59:23;102453.66;;;6.12;100.00
51928;BME280;37953;52.806;18.270;2023-02-13T07:01:49;102452.72;;;6.11;100.00
51928;BME280;37953;52.806;18.270;2023-02-13T07:04:15;102456.22;;;6.12;100.00
51928;BME280;37953;52.806;18.270;2023-02-13T07:06:41;102445.00;;;6.11;100.00
51928;BME280;37953;52.806;18.270;2023-02-13T07:09:06;102456.22;;;6.12;100.00
51928;BME280;37953;52.806;18.270;2023-02-13T07:11:32;102454.53;;;6.13;100.00
51928;BME280;37953;52.806;18.270;2023-02-13T07:13:58;102455.31;;;6.11;100.00
51928;BME280;37953;52.806;18.270;2023-02-13T07:16:24;102453.66;;;6.12;100.00
51928;BME280;37953;52.806;18.270;2023-02-13T07:18:50;102457.91;;;6.11;100.00
51928;BME280;37953;52.806;18.270;2023-02-13T07:21:16;102458.00;;;6.13;100.00
51928;BME280;37953;52.806;18.270;2023-02-13T07:23:42;102457.91;;;6.11;100.00
51928;BME280;37953;52.806;18.270;2023-02-13T07:26:08;102462.28;;;6.13;100.00
51928;BME280;37953;52.806;18.270;2023-02-13T07:28:35;102463.97;;;6.12;100.00
51928;BME280;37953;52.806;18.270;2023-02-13T07:31:04;102460.47;;;6.11;100.00
51928;BME280;37953;52.806;18.270;2023-02-13T07:33:30;102458.00;;;6.13;100.00
51928;BME280;37953;52.806;18.270;2023-02-13T07:35:56;102463.16;;;6.13;100.00
51928;BME280;37953;52.806;18.270;2023-02-13T07:38:22;102458.00;;;6.13;100.00
51928;BME280;37953;52.806;18.270;2023-02-13T07:40:48;102464.03;;;6.14;100.00
51928;BME280;37953;52.806;18.270;2023-02-13T07:43:14;102464.94;;;6.14;100.00
51928;BME280;37953;52.806;18.270;2023-02-13T07:45:46;102455.50;;;6.15;100.00
51928;BME280;37953;52.806;18.270;2023-02-13T07:48:12;102451.22;;;6.15;100.00
51928;BME280;37953;52.806;18.270;2023-02-13T07:50:38;102452.09;;;6.16;100.00
51928;BME280;37953;52.806;18.270;2023-02-13T07:53:03;102452.09;;;6.16;100.00
51928;BME280;37953;52.806;18.270;2023-02-13T07:55:35;102453.88;;;6.17;100.00
51928;BME280;37953;52.806;18.270;2023-02-13T07:58:01;102452.19;;;6.17;100.00
51928;BME280;37953;52.806;18.270;2023-02-13T08:00:27;102446.16;;;6.17;100.00
51928;BME280;37953;52.806;18.270;2023-02-13T08:02:53;102447.91;;;6.18;100.00
51928;BME280;37953;52.806;18.270;2023-02-13T08:05:19;102442.75;;;6.18;100.00
51928;BME280;37953;52.806;18.270;2023-02-13T08:07:44;102443.66;;;6.18;100.00
51928;BME280;37953;52.806;18.270;2023-02-13T08:10:13;102443.66;;;6.18;100.00
51928;BME280;37953;52.806;18.270;2023-02-13T08:15:27;102436.78;;;6.19;100.00
51928;BME280;37953;52.806;18.270;2023-02-13T08:17:59;102436.78;;;6.19;100.00
51928;BME280;37953;52.806;18.270;2023-02-13T08:20:25;102437.75;;;6.21;100.00
51928;BME280;37953;52.806;18.270;2023-02-13T08:22:51;102421.41;;;6.20;100.00
51928;BME280;37953;52.806;18.270;2023-02-13T08:25:17;102430.00;;;6.21;100.00
51928;BME280;37953;52.806;18.270;2023-02-13T08:27:44;102430.00;;;6.21;100.00
51928;BME280;37953;52.806;18.270;2023-02-13T08:30:10;102436.16;;;6.23;100.00
51928;BME280;37953;52.806;18.270;2023-02-13T08:32:37;102435.28;;;6.22;100.00
51928;BME280;37953;52.806;18.270;2023-02-13T08:35:03;102429.28;;;6.23;100.00
51928;BME280;37953;52.806;18.270;2023-02-13T08:37:29;102418.06;;;6.23;100.00
51928;BME280;37953;52.806;18.270;2023-02-13T08:39:55;102425.00;;;6.24;100.00
51928;BME280;37953;52.806;18.270;2023-02-13T08:42:21;102417.25;;;6.24;100.00
51928;BME280;37953;52.806;18.270;2023-02-13T08:44:47;102420.72;;;6.24;100.00
51928;BME280;37953;52.806;18.270;2023-02-13T08:47:13;102424.22;;;6.25;100.00
51928;BME280;37953;52.806;18.270;2023-02-13T08:49:39;102422.50;;;6.25;100.00
51928;BME280;37953;52.806;18.270;2023-02-13T08:52:05;102416.53;;;6.26;100.00
51928;BME280;37953;52.806;18.270;2023-02-13T08:54:32;102420.88;;;6.27;100.00
51928;BME280;37953;52.806;18.270;2023-02-13T08:56:58;102408.88;;;6.28;100.00
51928;BME280;37953;52.806;18.270;2023-02-13T08:59:24;102411.53;;;6.29;100.00
51928;BME280;37953;52.806;18.270;2023-02-13T09:01:50;102409.03;;;6.31;100.00
51928;BME280;37953;52.806;18.270;2023-02-13T09:04:16;102412.50;;;6.31;100.00
51928;BME280;37953;52.806;18.270;2023-02-13T09:06:43;102411.63;;;6.31;100.00
51928;BME280;37953;52.806;18.270;2023-02-13T09:09:09;102413.38;;;6.32;100.00
51928;BME280;37953;52.806;18.270;2023-02-13T09:11:35;102403.94;;;6.32;100.00
51928;BME280;37953;52.806;18.270;2023-02-13T09:14:00;102399.69;;;6.33;100.00
51928;BME280;37953;52.806;18.270;2023-02-13T09:16:26;102406.59;;;6.34;100.00
51928;BME280;37953;52.806;18.270;2023-02-13T09:18:52;102401.44;;;6.34;100.00
51928;BME280;37953;52.806;18.270;2023-02-13T09:21:19;102410.97;;;6.35;100.00
51928;BME280;37953;52.806;18.270;2023-02-13T09:23:46;102408.41;;;6.35;100.00
51928;BME280;37953;52.806;18.270;2023-02-13T09:26:15;102415.31;;;6.36;100.00
51928;BME280;37953;52.806;18.270;2023-02-13T09:28:41;102411.03;;;6.37;100.00
51928;BME280;37953;52.806;18.270;2023-02-13T09:31:11;102411.03;;;6.37;100.00
51928;BME280;37953;52.806;18.270;2023-02-13T09:33:37;102406.81;;;6.39;100.00
51928;BME280;37953;52.806;18.270;2023-02-13T09:36:04;102412.81;;;6.38;100.00
51928;BME280;37953;52.806;18.270;2023-02-13T09:38:30;102418.06;;;6.39;100.00
51928;BME280;37953;52.806;18.270;2023-02-13T09:40:57;102418.13;;;6.41;100.00
51928;BME280;37953;52.806;18.270;2023-02-13T09:45:50;102419.81;;;6.40;100.00
51928;BME280;37953;52.806;18.270;2023-02-13T09:48:25;102419.91;;;6.42;100.00
51928;BME280;37953;52.806;18.270;2023-02-13T09:50:52;102425.97;;;6.42;100.00
51928;BME280;37953;52.806;18.270;2023-02-13T09:53:24;102420.78;;;6.42;100.00
51928;BME280;37953;52.806;18.270;2023-02-13T10:01:04;102417.56;;;6.46;100.00
51928;BME280;37953;52.806;18.270;2023-02-13T10:03:35;102420.13;;;6.46;100.00
51928;BME280;37953;52.806;18.270;2023-02-13T10:18:52;102413.50;;;6.51;100.00
51928;BME280;37953;52.806;18.270;2023-02-13T10:21:21;102420.53;;;6.54;100.00
51928;BME280;37953;52.806;18.270;2023-02-13T10:23:50;102408.41;;;6.53;100.00
51928;BME280;37953;52.806;18.270;2023-02-13T10:26:27;102400.75;;;6.55;100.00
51928;BME280;37953;52.806;18.270;2023-02-13T10:29:31;102399.94;;;6.56;100.00
51928;BME280;37953;52.806;18.270;2023-02-13T10:32:21;102407.84;;;6.59;100.00
51928;BME280;37953;52.806;18.270;2023-02-13T10:34:56;102405.31;;;6.60;100.00
51928;BME280;37953;52.806;18.270;2023-02-13T10:37:23;102414.94;;;6.63;100.00
51928;BME280;37953;52.806;18.270;2023-02-13T10:39:50;102408.09;;;6.63;100.00
51928;BME280;37953;52.806;18.270;2023-02-13T10:42:39;102415.09;;;6.66;100.00
51928;BME280;37953;52.806;18.270;2023-02-13T10:45:13;102420.47;;;6.70;100.00
51928;BME280;37953;52.806;18.270;2023-02-13T10:48:02;102418.06;;;6.73;100.00
51928;BME280;37953;52.806;18.270;2023-02-13T10:53:34;102400.22;;;6.78;100.00
51928;BME280;37953;52.806;18.270;2023-02-13T11:04:05;102398.66;;;6.82;100.00
51928;BME280;37953;52.806;18.270;2023-02-13T11:06:32;102398.66;;;6.82;100.00
51928;BME280;37953;52.806;18.270;2023-02-13T11:09:00;102405.50;;;6.81;100.00
51928;BME280;37953;52.806;18.270;2023-02-13T11:14:11;102406.41;;;6.82;100.00
51928;BME280;37953;52.806;18.270;2023-02-13T11:16:52;102404.72;;;6.82;100.00
51928;BME280;37953;52.806;18.270;2023-02-13T11:19:19;102396.97;;;6.82;100.00
51928;BME280;37953;52.806;18.270;2023-02-13T11:21:49;102395.25;;;6.83;100.00
51928;BME280;37953;52.806;18.270;2023-02-13T11:24:22;102381.47;;;6.82;100.00
51928;BME280;37953;52.806;18.270;2023-02-13T11:26:52;102377.19;;;6.83;100.00
51928;BME280;37953;52.806;18.270;2023-02-13T11:29:26;102388.47;;;6.85;100.00
51928;BME280;37953;52.806;18.270;2023-02-13T11:34:37;102392.03;;;6.87;100.00
51928;BME280;37953;52.806;18.270;2023-02-13T11:39:48;102382.72;;;6.90;100.00
51928;BME280;37953;52.806;18.270;2023-02-13T11:42:15;102380.19;;;6.92;100.00
51928;BME280;37953;52.806;18.270;2023-02-13T11:44:42;102369.94;;;6.93;100.00
51928;BME280;37953;52.806;18.270;2023-02-13T11:47:09;102373.41;;;6.94;100.00
51928;BME280;37953;52.806;18.270;2023-02-13T11:49:36;102371.72;;;6.95;100.00
51928;BME280;37953;52.806;18.270;2023-02-13T11:52:03;102376.16;;;6.97;100.00
51928;BME280;37953;52.806;18.270;2023-02-13T11:54:34;102375.31;;;6.98;100.00
51928;BME280;37953;52.806;18.270;2023-02-13T11:57:02;102366.69;;;6.98;100.00
51928;BME280;37953;52.806;18.270;2023-02-13T11:59:37;102366.69;;;6.98;100.00
51928;BME280;37953;52.806;18.270;2023-02-13T12:02:17;102370.09;;;6.97;100.00
51928;BME280;37953;52.806;18.270;2023-02-13T12:04:51;102377.91;;;6.98;100.00
51928;BME280;37953;52.806;18.270;2023-02-13T12:07:30;102384.78;;;6.98;100.00
51928;BME280;37953;52.806;18.270;2023-02-13T12:12:53;102364.94;;;6.97;100.00
51928;BME280;37953;52.806;18.270;2023-02-13T12:15:27;102361.41;;;6.95;100.00
51928;BME280;37953;52.806;18.270;2023-02-13T12:23:11;102346.69;;;6.93;100.00
51928;BME280;37953;52.806;18.270;2023-02-13T12:41:16;102323.59;;;6.97;100.00
51928;BME280;37953;52.806;18.270;2023-02-13T12:49:32;102306.22;;;6.94;100.00
51928;BME280;37953;52.806;18.270;2023-02-13T12:52:06;102300.19;;;6.93;100.00
51928;BME280;37953;52.806;18.270;2023-02-13T13:02:39;102328.69;;;6.95;100.00
51928;BME280;37953;52.806;18.270;2023-02-13T13:27:02;102305.63;;;7.00;100.00
51928;BME280;37953;52.806;18.270;2023-02-13T13:31:56;102314.28;;;7.00;100.00
51928;BME280;37953;52.806;18.270;2023-02-13T13:34:25;102314.28;;;7.00;100.00
51928;BME280;37953;52.806;18.270;2023-02-13T13:37:01;102316.06;;;7.01;100.00
51928;BME280;37953;52.806;18.270;2023-02-13T13:39:46;102314.28;;;7.00;100.00
51928;BME280;37953;52.806;18.270;2023-02-13T13:42:26;102321.16;;;7.00;100.00
51928;BME280;37953;52.806;18.270;2023-02-13T13:49:55;102311.78;;;7.02;100.00
51928;BME280;37953;52.806;18.270;2023-02-13T13:52:32;102298.84;;;7.02;100.00
51928;BME280;37953;52.806;18.270;2023-02-13T13:55:09;102305.81;;;7.03;100.00
51928;BME280;37953;52.806;18.270;2023-02-13T13:57:58;102310.06;;;7.02;100.00
51928;BME280;37953;52.806;18.270;2023-02-13T14:00:27;102310.06;;;7.02;100.00
51928;BME280;37953;52.806;18.270;2023-02-13T14:05:30;102320.41;;;7.02;100.00
51928;BME280;37953;52.806;18.270;2023-02-13T14:08:00;102317.81;;;7.02;100.00
51928;BME280;37953;52.806;18.270;2023-02-13T14:18:41;102328.97;;;7.01;100.00
51928;BME280;37953;52.806;18.270;2023-02-13T14:26:24;102344.41;;;7.00;100.00
51928;BME280;37953;52.806;18.270;2023-02-13T14:36:29;102333.19;;;6.99;100.00
51928;BME280;37953;52.806;18.270;2023-02-13T14:39:04;102330.59;;;6.99;100.00
51928;BME280;37953;52.806;18.270;2023-02-13T14:46:41;102324.59;;;7.00;100.00
51928;BME280;37953;52.806;18.270;2023-02-13T14:49:18;102310.72;;;6.98;100.00
51928;BME280;37953;52.806;18.270;2023-02-13T14:51:47;102311.56;;;6.97;100.00
51928;BME280;37953;52.806;18.270;2023-02-13T14:56:59;102304.56;;;6.95;100.00
51928;BME280;37953;52.806;18.270;2023-02-13T14:59:30;102295.88;;;6.94;100.00
51928;BME280;37953;52.806;18.270;2023-02-13T15:02:01;102295.88;;;6.94;100.00
51928;BME280;37953;52.806;18.270;2023-02-13T15:04:45;102293.25;;;6.92;100.00
51928;BME280;37953;52.806;18.270;2023-02-13T15:07:20;102297.50;;;6.92;100.00
51928;BME280;37953;52.806;18.270;2023-02-13T15:09:49;102288.88;;;6.91;100.00
51928;BME280;37953;52.806;18.270;2023-02-13T15:12:23;102291.47;;;6.91;100.00
51928;BME280;37953;52.806;18.270;2023-02-13T15:14:49;102282.84;;;6.91;100.00
51928;BME280;37953;52.806;18.270;2023-02-13T15:17:17;102292.34;;;6.92;100.00
51928;BME280;37953;52.806;18.270;2023-02-13T15:19:50;102296.56;;;6.90;100.00
51928;BME280;37953;52.806;18.270;2023-02-13T15:22:18;102293.94;;;6.88;100.00
51928;BME280;37953;52.806;18.270;2023-02-13T15:24:45;102292.13;;;6.87;100.00
51928;BME280;37953;52.806;18.270;2023-02-13T15:27:45;102280.84;;;6.85;100.00
51928;BME280;37953;52.806;18.270;2023-02-13T15:32:33;102270.50;;;6.85;100.00
51928;BME280;37953;52.806;18.270;2023-02-13T15:35:36;102271.34;;;6.84;100.00
51928;BME280;37953;52.806;18.270;2023-02-13T15:40:45;102271.34;;;6.84;100.00
51928;BME280;37953;52.806;18.270;2023-02-13T15:45:52;102271.34;;;6.84;100.00
51928;BME280;37953;52.806;18.270;2023-02-13T15:48:19;102274.81;;;6.85;100.00
51928;BME280;37953;52.806;18.270;2023-02-13T15:50:47;102277.38;;;6.85;100.00
51928;BME280;37953;52.806;18.270;2023-02-13T15:53:14;102280.84;;;6.85;100.00
51928;BME280;37953;52.806;18.270;2023-02-13T15:55:40;102279.19;;;6.86;100.00
51928;BME280;37953;52.806;18.270;2023-02-13T15:58:10;102286.00;;;6.85;100.00
51928;BME280;37953;52.806;18.270;2023-02-13T16:00:38;102292.88;;;6.85;100.00
51928;BME280;37953;52.806;18.270;2023-02-13T16:03:06;102288.56;;;6.84;100.00